地図

経路データ

SID SEASON NUMBER BASIN SUBBASIN NAME ISO_TIME NATURE LAT LON WMO_WIND WMO_PRES WMO_AGENCY TRACK_TYPE DIST2LAND LANDFALL IFLAG USA_AGENCY USA_ATCF_ID USA_LAT USA_LON USA_RECORD USA_STATUS USA_WIND USA_PRES USA_SSHS USA_R34_NE USA_R34_SE USA_R34_SW USA_R34_NW USA_R50_NE USA_R50_SE USA_R50_SW USA_R50_NW USA_R64_NE USA_R64_SE USA_R64_SW USA_R64_NW USA_POCI USA_ROCI USA_RMW USA_EYE TOKYO_LAT TOKYO_LON TOKYO_GRADE TOKYO_WIND TOKYO_PRES TOKYO_R50_DIR TOKYO_R50_LONG TOKYO_R50_SHORT TOKYO_R30_DIR TOKYO_R30_LONG TOKYO_R30_SHORT TOKYO_LAND CMA_LAT CMA_LON CMA_CAT CMA_WIND CMA_PRES HKO_LAT HKO_LON HKO_CAT HKO_WIND HKO_PRES NEWDELHI_LAT NEWDELHI_LON NEWDELHI_GRADE NEWDELHI_WIND NEWDELHI_PRES NEWDELHI_CI NEWDELHI_DP NEWDELHI_POCI REUNION_LAT REUNION_LON REUNION_TYPE REUNION_WIND REUNION_PRES REUNION_TNUM REUNION_CI REUNION_RMW REUNION_R34_NE REUNION_R34_SE REUNION_R34_SW REUNION_R34_NW REUNION_R50_NE REUNION_R50_SE REUNION_R50_SW REUNION_R50_NW REUNION_R64_NE REUNION_R64_SE REUNION_R64_SW REUNION_R64_NW BOM_LAT BOM_LON BOM_TYPE BOM_WIND BOM_PRES BOM_TNUM BOM_CI BOM_RMW BOM_R34_NE BOM_R34_SE BOM_R34_SW BOM_R34_NW BOM_R50_NE BOM_R50_SE BOM_R50_SW BOM_R50_NW BOM_R64_NE BOM_R64_SE BOM_R64_SW BOM_R64_NW BOM_ROCI BOM_POCI BOM_EYE BOM_POS_METHOD BOM_PRES_METHOD NADI_LAT NADI_LON NADI_CAT NADI_WIND NADI_PRES WELLINGTON_LAT WELLINGTON_LON WELLINGTON_WIND WELLINGTON_PRES DS824_LAT DS824_LON DS824_STAGE DS824_WIND DS824_PRES TD9636_LAT TD9636_LON TD9636_STAGE TD9636_WIND TD9636_PRES TD9635_LAT TD9635_LON TD9635_WIND TD9635_PRES TD9635_ROCI NEUMANN_LAT NEUMANN_LON NEUMANN_CLASS NEUMANN_WIND NEUMANN_PRES MLC_LAT MLC_LON MLC_CLASS MLC_WIND MLC_PRES USA_GUST BOM_GUST BOM_GUST_PER REUNION_GUST REUNION_GUST_PER USA_SEAHGT USA_SEARAD_NE USA_SEARAD_SE USA_SEARAD_SW USA_SEARAD_NW STORM_SPEED STORM_DIR
1888275N15094 1888 51 NI BB NOT_NAMED 1888-10-01 00:00:00 TS 14.5000 93.8000 main 159 159 _________O____ -1 14.5000 93.8000 TC 45 0 0
1888275N15094 1888 51 NI BB NOT_NAMED 1888-10-01 03:00:00 TS 14.5000 93.8000 main 159 159 _________PO___ -1 14.5000 93.8000 TC 45 14.5000 93.8000 3 0 0
1888275N15094 1888 51 NI BB NOT_NAMED 1888-10-01 06:00:00 TS 14.5006 93.7975 main 159 159 _________OP___ -1 14.5000 93.8000 TC 45 14.5016 93.7938 3 0 0
1888275N15094 1888 51 NI BB NOT_NAMED 1888-10-01 09:00:00 TS 14.5011 93.7957 main 159 159 _________PP___ -1 14.5000 93.8000 TC 45 14.5025 93.7900 3 0 0
1888275N15094 1888 51 NI BB NOT_NAMED 1888-10-01 12:00:00 TS 14.5011 93.7956 main 159 159 _________OP___ -1 14.5000 93.8000 TC 45 14.5022 93.7913 3 0 0
1888275N15094 1888 51 NI BB NOT_NAMED 1888-10-01 15:00:00 TS 14.5000 93.8000 main 159 159 _________PO___ -1 14.5000 93.8000 TC 45 14.5000 93.8000 3 0 0
1888275N15094 1888 51 NI BB NOT_NAMED 1888-10-01 18:00:00 TS 14.4980 93.8081 main 159 159 _________OP___ -1 14.5000 93.8000 TC 45 14.4959 93.8163 3 0 0
1888275N15094 1888 51 NI BB NOT_NAMED 1888-10-01 21:00:00 TS 14.4962 93.8225 main 159 159 _________PP___ -1 14.5000 93.8150 TC 45 14.4925 93.8300 3 0 0
1888275N15094 1888 51 NI BB NOT_NAMED 1888-10-02 00:00:00 TS 14.4964 93.8144 main 159 159 _________OP___ -1 14.5000 93.8000 TC 45 14.4928 93.8287 3 1 270
1888275N15094 1888 51 NI BB NOT_NAMED 1888-10-02 03:00:00 TS 14.4963 93.7575 main 159 159 _________PO___ -1 14.4925 93.7150 TC 45 14.5000 93.8000 3 1 274
1888275N15094 1888 51 NI BB NOT_NAMED 1888-10-02 06:00:00 TS 14.5069 93.6644 main 163 163 _________OP___ -1 14.5000 93.6000 TC 45 14.5138 93.7288 3 2 283
1888275N15094 1888 51 NI BB NOT_NAMED 1888-10-02 09:00:00 TS 14.5388 93.5650 main 168 165 _________PP___ -1 14.5425 93.5000 TC 45 14.5350 93.6300 3 2 291
1888275N15094 1888 51 NI BB NOT_NAMED 1888-10-02 12:00:00 TS 14.5819 93.4581 main 165 165 _________OP___ -1 14.6000 93.4000 TC 45 14.5638 93.5163 3 2 292
1888275N15094 1888 51 NI BB NOT_NAMED 1888-10-02 15:00:00 TS 14.6250 93.3500 main 171 170 _________PO___ -1 14.6500 93.3000 TC 45 14.6000 93.4000 3 2 293
1888275N15094 1888 51 NI BB NOT_NAMED 1888-10-02 18:00:00 TS 14.6591 93.2682 main 170 170 _________OP___ -1 14.7000 93.2000 TC 45 14.6182 93.3363 3 2 294
1888275N15094 1888 51 NI BB NOT_NAMED 1888-10-02 21:00:00 TS 14.6873 93.2022 main 178 178 _________PP___ -1 14.7274 93.1374 TC 45 14.6472 93.2671 3 2 297
1888275N15094 1888 51 NI BB NOT_NAMED 1888-10-03 00:00:00 TS 14.7513 93.0822 main 178 178 _________OP___ -1 14.8000 93.0000 TC 45 14.7025 93.1643 3 4 300
1888275N15094 1888 51 NI BB NOT_NAMED 1888-10-03 03:00:00 TS 14.8888 92.8401 main 194 194 _________PO___ -1 14.9776 92.6801 TC 45 14.8000 93.0000 3 6 301
1888275N15094 1888 51 NI BB NOT_NAMED 1888-10-03 06:00:00 TS 15.0744 92.5219 main 208 208 _________OP___ -1 15.2000 92.3000 TC 45 14.9489 92.7439 3 7 302
1888275N15094 1888 51 NI BB NOT_NAMED 1888-10-03 09:00:00 TS 15.2663 92.2125 main 228 228 _________PP___ -1 15.3924 91.9999 TC 45 15.1402 92.4251 3 7 303
1888275N15094 1888 51 NI BB NOT_NAMED 1888-10-03 12:00:00 TS 15.4807 91.8844 main 252 252 _________OP___ -1 15.6000 91.7000 TC 45 15.3614 92.0687 3 8 305
1888275N15094 1888 51 NI BB NOT_NAMED 1888-10-03 15:00:00 TS 15.7212 91.5287 main 290 289 _________PO___ -1 15.8425 91.3575 TC 45 15.6000 91.7000 3 8 306
1888275N15094 1888 51 NI BB NOT_NAMED 1888-10-03 18:00:00 TS 15.9718 91.1766 main 320 320 _________OP___ -1 16.1000 91.0000 TC 45 15.8437 91.3532 3 9 307
1888275N15094 1888 51 NI BB NOT_NAMED 1888-10-03 21:00:00 TS 16.2287 90.8213 main 364 364 _________PP___ -1 16.3575 90.6425 TC 45 16.0999 91.0001 3 8 307
1888275N15094 1888 51 NI BB NOT_NAMED 1888-10-04 00:00:00 TS 16.4781 90.4735 main 399 399 _________OP___ -1 16.6000 90.3000 TC 45 16.3562 90.6469 3 8 306
1888275N15094 1888 51 NI BB NOT_NAMED 1888-10-04 03:00:00 TS 16.7037 90.1499 main 444 444 _________PO___ -1 16.8074 89.9999 TC 45 16.6000 90.3000 3 8 305
1888275N15094 1888 51 NI BB NOT_NAMED 1888-10-04 06:00:00 TS 16.9051 89.8257 main 474 460 _________OP___ -1 17.0000 89.7000 TC 45 16.8103 89.9513 3 8 302
1888275N15094 1888 51 NI BB NOT_NAMED 1888-10-04 09:00:00 TS 17.1037 89.4811 main 460 422 _________PP___ -1 17.2000 89.3500 TC 45 17.0075 89.6122 3 8 301
1888275N15094 1888 51 NI BB NOT_NAMED 1888-10-04 12:00:00 TS 17.3005 89.1460 main 414 384 _________OP___ -1 17.4000 89.0000 TC 45 17.2009 89.2920 3 7 302
1888275N15094 1888 51 NI BB NOT_NAMED 1888-10-04 15:00:00 TS 17.4963 88.8350 main 376 346 _________PO___ -1 17.5925 88.6700 TC 45 17.4000 89.0000 3 7 305
1888275N15094 1888 51 NI BB NOT_NAMED 1888-10-04 18:00:00 TS 17.7048 88.5508 main 346 308 _________OP___ -1 17.8000 88.4000 TC 45 17.6096 88.7017 3 7 312
1888275N15094 1888 51 NI BB NOT_NAMED 1888-10-04 21:00:00 TS 17.9312 88.3214 main 308 276 _________PP___ -1 18.0349 88.2050 TC 45 17.8275 88.4378 3 6 322
1888275N15094 1888 51 NI BB NOT_NAMED 1888-10-05 00:00:00 TS 18.1783 88.1650 main 276 252 _________OP___ -1 18.3000 88.1000 TC 45 18.0565 88.2300 3 6 336
1888275N15094 1888 51 NI BB NOT_NAMED 1888-10-05 03:00:00 TS 18.4500 88.0812 main 252 230 _________PO___ -1 18.6000 88.0625 TC 45 18.3000 88.1000 3 6 352
1888275N15094 1888 51 NI BB NOT_NAMED 1888-10-05 06:00:00 TS 18.7343 88.0812 main 230 206 _________OP___ -1 18.9000 88.1000 TC 45 18.5686 88.0624 3 6 6
1888275N15094 1888 51 NI BB NOT_NAMED 1888-10-05 09:00:00 TS 19.0037 88.1435 main 206 192 _________PP___ -1 19.1575 88.1850 TC 45 18.8498 88.1020 3 6 16
1888275N15094 1888 51 NI BB NOT_NAMED 1888-10-05 12:00:00 TS 19.2656 88.2453 main 192 189 _________OP___ -1 19.4000 88.3000 TC 45 19.1312 88.1906 3 6 20
1888275N15094 1888 51 NI BB NOT_NAMED 1888-10-05 15:00:00 TS 19.5287 88.3500 main 198 183 _________PO___ -1 19.6575 88.4000 TC 45 19.4000 88.3000 3 5 19
1888275N15094 1888 51 NI BB NOT_NAMED 1888-10-05 18:00:00 TS 19.7533 88.4249 main 177 177 _________OP___ -1 19.9000 88.5000 TC 45 19.6067 88.3498 3 4 19
1888275N15094 1888 51 NI BB NOT_NAMED 1888-10-05 21:00:00 TS 19.9373 88.4946 main 180 168 _________PP___ -1 20.0699 88.5703 TC 45 19.8046 88.4188 3 4 23
1888275N15094 1888 51 NI BB NOT_NAMED 1888-10-06 00:00:00 TS 20.1626 88.6141 main 156 123 _________OP___ -1 20.3000 88.7000 TC 45 20.0253 88.5283 3 7 29
1888275N15094 1888 51 NI BB NOT_NAMED 1888-10-06 03:00:00 TS 20.5100 88.8312 main 123 78 _________PO___ -1 20.7200 88.9623 TC 41 20.3000 88.7000 3 9 32
1888275N15094 1888 51 NI BB NOT_NAMED 1888-10-06 06:00:00 TS 20.9358 89.1239 main 78 44 _________OP___ -1 21.2000 89.3000 TC 37 20.6717 88.9478 3 10 34
1888275N15094 1888 51 NI BB NOT_NAMED 1888-10-06 09:00:00 TS 21.3525 89.4474 main 33 0 _________PP___ -1 21.6074 89.6352 TC 33 21.0976 89.2596 3 11 37
1888275N15094 1888 51 NI BB NOT_NAMED 1888-10-06 12:00:00 TS 21.7749 89.8084 main 0 0 _________OP___ -1 22.0000 90.0000 TC 30 21.5497 89.6168 3 11 39
1888275N15094 1888 51 NI BB NOT_NAMED 1888-10-06 15:00:00 TS 22.2000 90.1963 main 0 0 _________PO___ -1 22.4000 90.3927 TC 30 22.0000 90.0000 1 11 41
1888275N15094 1888 51 NI BB NOT_NAMED 1888-10-06 18:00:00 TS 22.5866 90.5674 main 0 0 _________OP___ -1 22.8000 90.8000 TC 30 22.4265 90.3929 1 11 42
1888275N15094 1888 51 NI BB NOT_NAMED 1888-10-06 21:00:00 TS 22.9784 90.9556 main 0 0 _________PP___ -1 23.2002 91.2021 TC 30 22.8306 90.7912 1 10 43
1888275N15094 1888 51 NI BB NOT_NAMED 1888-10-07 00:00:00 TS 23.3463 91.3293 main 0 0 _________OP___ -1 23.6000 91.6000 TC 30 23.2194 91.1940 1 9 44
1888275N15094 1888 51 NI BB NOT_NAMED 1888-10-07 03:00:00 NR 23.6000 91.6000 main 0 __________O___ -1 TC 23.6000 91.6000 1 7 44

IBTrACS Databaseについて

本データベースは、米国NOAAが公開する1842年以降の世界の熱帯低気圧のベストトラックデータアーカイブInternational Best Track Archive for Climate Stewardship (IBTrACS)を、ウェブで閲覧しやすい形式に変換したものです。

最終更新日:2021-11-26